Time;durP1;ratioP1;P1;durP2;ratioP2;P2;SDS_P1;SDS_P2;PMS_P1;PMS_P2;Temp;Humidity;BMP_temperature;BMP_pressure;BME280_temperature;BME280_humidity;BME280_pressure;Samples;Min_cycle;Max_cycle;Signal;HPM_P1;HPM_P2
2023/05/25 00:04:09;;;;;;;5.80;4.00;;;13.70;87.20;;;;;;10399923;28;20619;-86
2023/05/25 00:09:11;;;;;;;5.80;4.53;;;13.60;87.70;;;;;;10421720;28;20241;-87
2023/05/25 00:14:14;;;;;;;4.40;3.93;;;13.60;90.00;;;;;;10438171;28;20229;-85
2023/05/25 00:19:17;;;;;;;4.53;4.13;;;13.50;88.60;;;;;;10420282;28;20201;-84
2023/05/25 00:24:20;;;;;;;6.37;4.50;;;13.50;90.20;;;;;;10433728;28;20254;-84
2023/05/25 00:29:24;;;;;;;6.83;4.30;;;13.50;90.30;;;;;;10456623;28;20295;-84
2023/05/25 00:34:26;;;;;;;6.20;4.40;;;13.50;90.30;;;;;;10453077;28;20594;-87
2023/05/25 00:39:28;;;;;;;4.60;4.10;;;13.50;90.20;;;;;;10441501;28;20564;-85
2023/05/25 00:44:32;;;;;;;4.30;3.80;;;13.60;89.50;;;;;;10463725;28;20634;-84
2023/05/25 00:49:35;;;;;;;4.47;4.07;;;13.60;90.10;;;;;;10445079;28;20592;-85
2023/05/25 00:54:38;;;;;;;6.87;4.63;;;13.70;89.50;;;;;;10422631;28;20214;-86
2023/05/25 00:59:48;;;;;;;6.60;4.20;;;13.70;90.30;;;;;;10438549;28;20200;-84
2023/05/25 01:04:53;;;;;;;8.40;4.47;;;13.70;90.60;;;;;;10423662;28;20269;-87
2023/05/25 01:10:00;;;;;;;7.30;4.57;;;13.60;90.40;;;;;;10398343;28;20356;-86
2023/05/25 01:15:04;;;;;;;8.10;4.70;;;13.60;90.70;;;;;;10414984;28;20194;-86
2023/05/25 01:20:08;;;;;;;8.27;4.43;;;13.50;90.70;;;;;;10423377;28;20685;-87
2023/05/25 01:25:15;;;;;;;8.03;4.73;;;13.50;90.80;;;;;;10409474;28;20666;-87
2023/05/25 01:30:21;;;;;;;5.47;4.97;;;13.50;90.60;;;;;;10426970;28;20257;-87
2023/05/25 01:35:25;;;;;;;4.37;3.97;;;13.40;91.10;;;;;;10428672;28;20234;-85
2023/05/25 01:40:28;;;;;;;7.10;4.20;;;13.40;90.50;;;;;;10446304;28;20313;-85
2023/05/25 01:45:31;;;;;;;5.80;4.30;;;13.40;89.30;;;;;;10454055;28;20265;-86
2023/05/25 01:50:41;;;;;;;8.00;5.07;;;13.30;90.80;;;;;;10432724;28;20235;-86
2023/05/25 01:55:50;;;;;;;6.47;4.87;;;13.20;90.70;;;;;;10411591;28;20280;-85
2023/05/25 02:00:54;;;;;;;6.47;4.63;;;13.10;90.30;;;;;;10437058;28;20215;-83
2023/05/25 02:05:56;;;;;;;7.60;5.00;;;13.00;90.90;;;;;;10444758;28;20292;-84
2023/05/25 02:11:00;;;;;;;8.00;4.40;;;13.00;90.30;;;;;;10419693;28;20268;-82
2023/05/25 02:16:02;;;;;;;6.27;4.47;;;13.00;90.80;;;;;;10481021;28;20270;-85
2023/05/25 02:21:06;;;;;;;6.77;4.27;;;12.90;91.10;;;;;;10447278;28;20225;-85
2023/05/25 02:26:09;;;;;;;10.73;4.87;;;12.90;91.40;;;;;;10435501;28;20198;-83
2023/05/25 02:31:12;;;;;;;8.37;5.30;;;12.80;91.50;;;;;;10420127;28;20325;-86
2023/05/25 02:36:15;;;;;;;11.50;5.23;;;12.80;91.70;;;;;;10412274;28;20233;-86
2023/05/25 02:41:19;;;;;;;7.10;5.17;;;12.80;91.60;;;;;;10438297;28;20305;-85
2023/05/25 02:46:21;;;;;;;8.60;5.03;;;12.70;90.70;;;;;;10408242;28;20735;-86
2023/05/25 02:51:23;;;;;;;7.67;5.83;;;12.70;90.50;;;;;;10442750;28;20293;-84
2023/05/25 02:56:27;;;;;;;6.67;5.50;;;12.70;90.60;;;;;;10448975;28;20238;-84
2023/05/25 03:01:31;;;;;;;12.57;5.67;;;12.60;91.30;;;;;;10412237;28;20241;-86
2023/05/25 03:06:35;;;;;;;10.90;5.80;;;12.60;91.40;;;;;;10402643;28;20276;-86
2023/05/25 03:11:44;;;;;;;9.93;5.03;;;12.60;91.30;;;;;;10421766;28;20283;-86
2023/05/25 03:16:50;;;;;;;7.67;5.40;;;12.50;91.40;;;;;;10433975;28;20216;-86
2023/05/25 03:21:53;;;;;;;13.17;5.60;;;12.50;91.70;;;;;;10412247;28;20286;-84
2023/05/25 03:26:57;;;;;;;5.87;5.20;;;12.50;92.10;;;;;;10411269;28;20211;-86
2023/05/25 03:31:59;;;;;;;8.73;5.37;;;12.50;92.40;;;;;;10423892;28;20386;-86
2023/05/25 03:37:03;;;;;;;5.30;4.80;;;12.40;92.20;;;;;;10415295;28;20297;-86
2023/05/25 03:42:07;;;;;;;7.13;5.87;;;12.40;92.30;;;;;;10424621;28;20214;-86
2023/05/25 03:47:10;;;;;;;7.80;5.80;;;12.40;92.30;;;;;;10413120;28;20206;-86
2023/05/25 03:52:12;;;;;;;6.73;5.53;;;12.40;92.20;;;;;;10428645;28;20320;-86
2023/05/25 03:57:16;;;;;;;7.43;5.83;;;12.40;92.80;;;;;;10440667;28;20679;-86
2023/05/25 04:02:18;;;;;;;7.27;5.70;;;12.40;92.20;;;;;;10407937;28;20238;-86
2023/05/25 04:07:20;;;;;;;6.33;5.33;;;12.40;92.30;;;;;;10445739;28;20202;-86
2023/05/25 04:12:23;;;;;;;6.70;5.50;;;12.40;92.80;;;;;;10468328;28;20236;-84
2023/05/25 04:17:26;;;;;;;6.93;6.03;;;12.40;92.60;;;;;;10436429;28;20523;-84
2023/05/25 04:22:28;;;;;;;8.50;6.20;;;12.40;92.20;;;;;;10412120;28;20218;-83
2023/05/25 04:27:32;;;;;;;8.20;6.67;;;12.40;92.70;;;;;;10439222;28;20206;-84
2023/05/25 04:32:36;;;;;;;10.30;6.33;;;12.40;92.10;;;;;;10441140;28;20236;-83
2023/05/25 04:37:56;;;;;;;7.87;6.30;;;12.50;93.00;;;;;;10446598;28;20247;-82
2023/05/25 04:43:02;;;;;;;8.97;5.90;;;12.50;92.60;;;;;;10425009;28;20884;-82
2023/05/25 04:48:06;;;;;;;8.50;6.60;;;12.50;93.20;;;;;;10486883;28;20190;-83
2023/05/25 04:53:08;;;;;;;7.40;6.07;;;12.50;93.10;;;;;;10432229;28;20647;-85
2023/05/25 04:58:15;;;;;;;11.57;6.33;;;12.60;92.60;;;;;;10439684;28;20198;-86
2023/05/25 05:03:18;;;;;;;9.13;6.57;;;12.70;93.10;;;;;;10440849;28;20229;-86
2023/05/25 05:08:20;;;;;;;7.50;6.00;;;12.70;92.90;;;;;;10414774;28;20203;-86
2023/05/25 05:13:27;;;;;;;9.40;5.80;;;12.90;92.80;;;;;;10423197;28;20226;-86
2023/05/25 05:18:30;;;;;;;10.53;5.53;;;13.00;91.00;;;;;;10424647;28;20213;-86
2023/05/25 05:23:33;;;;;;;10.43;6.93;;;13.00;92.10;;;;;;10425015;28;20272;-87
2023/05/25 05:28:40;;;;;;;10.60;6.57;;;13.10;92.10;;;;;;10451601;28;20206;-87
2023/05/25 05:33:46;;;;;;;6.93;5.87;;;13.20;92.80;;;;;;10422111;28;20612;-87
2023/05/25 05:38:48;;;;;;;9.30;5.97;;;13.30;92.80;;;;;;10406590;28;20624;-88
2023/05/25 05:43:52;;;;;;;11.87;6.47;;;13.40;92.30;;;;;;10398472;28;20229;-88
2023/05/25 05:48:54;;;;;;;7.20;5.97;;;13.50;92.70;;;;;;10409908;28;20245;-88
2023/05/25 05:54:00;;;;;;;10.93;6.97;;;13.60;91.50;;;;;;10417882;28;20245;-88
2023/05/25 05:59:04;;;;;;;7.70;6.20;;;13.70;92.50;;;;;;10456487;28;20200;-86
2023/05/25 06:04:07;;;;;;;6.50;5.50;;;13.80;91.90;;;;;;10439955;28;20234;-86
2023/05/25 06:09:10;;;;;;;6.87;6.17;;;14.00;91.60;;;;;;10421325;28;20356;-86
2023/05/25 06:14:14;;;;;;;9.50;6.57;;;14.30;92.10;;;;;;10412920;28;20227;-86
2023/05/25 06:19:17;;;;;;;10.33;6.63;;;14.50;91.30;;;;;;10396093;28;20256;-86
2023/05/25 06:24:19;;;;;;;9.70;7.20;;;14.60;91.40;;;;;;10412771;28;20223;-86
2023/05/25 06:29:23;;;;;;;7.30;6.00;;;14.70;91.30;;;;;;10419527;28;20284;-86
2023/05/25 06:34:25;;;;;;;6.83;6.13;;;14.90;91.60;;;;;;10436526;28;20228;-86
2023/05/25 06:39:28;;;;;;;9.03;6.63;;;15.10;90.20;;;;;;10437269;28;20658;-87
2023/05/25 06:44:31;;;;;;;10.50;7.17;;;15.30;91.20;;;;;;10430011;28;20338;-87
2023/05/25 06:49:37;;;;;;;8.90;6.40;;;15.60;90.40;;;;;;10414628;28;20249;-87
2023/05/25 06:54:39;;;;;;;9.80;6.93;;;15.80;90.60;;;;;;10434524;28;20213;-87
2023/05/25 06:59:43;;;;;;;11.03;7.03;;;15.90;88.80;;;;;;10414472;28;20286;-88
2023/05/25 07:04:45;;;;;;;9.07;6.63;;;16.10;90.60;;;;;;10415149;28;20237;-87
2023/05/25 07:09:48;;;;;;;11.07;7.33;;;16.30;90.20;;;;;;10415266;28;20210;-88
2023/05/25 07:14:52;;;;;;;12.53;6.37;;;16.50;91.10;;;;;;10417637;28;20221;-88
2023/05/25 07:19:54;;;;;;;11.40;7.00;;;16.70;90.10;;;;;;10413913;28;20680;-88
2023/05/25 07:24:57;;;;;;;10.83;7.50;;;16.80;90.30;;;;;;10395406;28;20226;-87
2023/05/25 07:30:04;;;;;;;8.97;7.13;;;16.80;90.40;;;;;;10398435;28;20265;-88
2023/05/25 07:35:07;;;;;;;9.30;6.83;;;16.90;90.60;;;;;;10405879;28;20286;-87
2023/05/25 07:40:10;;;;;;;11.63;7.30;;;16.90;90.70;;;;;;10414983;28;20202;-89
2023/05/25 07:45:17;;;;;;;10.27;6.87;;;17.00;90.00;;;;;;10439262;28;20186;-88
2023/05/25 07:50:20;;;;;;;10.27;6.37;;;17.10;90.90;;;;;;10430680;28;20279;-88
2023/05/25 07:55:22;;;;;;;9.50;7.30;;;17.30;91.70;;;;;;10427910;28;20206;-88
2023/05/25 08:00:26;;;;;;;10.93;6.83;;;17.40;89.50;;;;;;10421839;28;20226;-87
2023/05/25 08:05:31;;;;;;;11.03;7.20;;;17.70;90.90;;;;;;10456443;28;20207;-88
2023/05/25 08:10:34;;;;;;;9.03;6.60;;;18.30;89.70;;;;;;10422290;28;20316;-88
2023/05/25 08:15:37;;;;;;;8.37;7.53;;;19.00;90.40;;;;;;10461103;28;20204;-88
2023/05/25 08:20:40;;;;;;;8.07;6.47;;;19.70;89.60;;;;;;10422814;28;20223;-87
2023/05/25 08:25:42;;;;;;;9.30;6.90;;;20.40;83.20;;;;;;10402877;28;20333;-88
2023/05/25 08:30:46;;;;;;;7.13;6.50;;;20.90;82.40;;;;;;10435299;28;20222;-88
2023/05/25 08:35:49;;;;;;;10.37;6.90;;;21.30;83.40;;;;;;10418393;28;20202;-89
2023/05/25 08:41:03;;;;;;;9.30;6.67;;;21.70;81.10;;;;;;10433403;28;20326;-87
2023/05/25 08:46:08;;;;;;;7.60;5.83;;;22.00;81.50;;;;;;10449268;28;20194;-88
2023/05/25 08:51:20;;;;;;;11.53;8.00;;;22.30;85.30;;;;;;10420979;28;20330;-89
2023/05/25 08:56:26;;;;;;;8.50;6.57;;;22.30;83.90;;;;;;10416274;28;20249;-89
2023/05/25 09:01:33;;;;;;;9.73;7.20;;;22.60;80.70;;;;;;10436166;23;20239;-85
2023/05/25 09:06:37;;;;;;;9.53;6.40;;;22.70;81.50;;;;;;10508166;28;20250;-85
2023/05/25 09:11:40;;;;;;;8.73;6.27;;;22.70;83.50;;;;;;10492077;28;20229;-84
2023/05/25 09:16:44;;;;;;;7.10;6.37;;;22.70;81.00;;;;;;10460504;28;20197;-85
2023/05/25 09:21:46;;;;;;;8.77;6.43;;;22.50;85.50;;;;;;10472117;28;20585;-85
2023/05/25 09:26:48;;;;;;;7.77;6.80;;;22.50;80.10;;;;;;10479413;28;20670;-85
2023/05/25 09:31:51;;;;;;;7.63;6.83;;;22.60;79.40;;;;;;10459020;28;20316;-85
2023/05/25 09:36:53;;;;;;;6.83;6.23;;;22.90;80.40;;;;;;10459099;28;20248;-86
2023/05/25 09:41:56;;;;;;;9.77;6.83;;;22.90;84.20;;;;;;10471803;28;20225;-86
2023/05/25 09:47:00;;;;;;;7.33;6.00;;;23.00;81.70;;;;;;10477257;28;20205;-84
2023/05/25 09:52:02;;;;;;;7.20;6.10;;;23.00;84.80;;;;;;10462179;28;20716;-85
2023/05/25 09:57:05;;;;;;;10.37;6.90;;;23.10;84.60;;;;;;10459957;28;20194;-85
2023/05/25 10:02:09;;;;;;;6.97;6.30;;;22.90;84.20;;;;;;10446095;28;20225;-85
2023/05/25 10:07:13;;;;;;;11.70;6.50;;;23.10;84.30;;;;;;10471992;28;20212;-85
2023/05/25 10:12:18;;;;;;;8.80;6.53;;;23.70;85.50;;;;;;10477526;28;20233;-85
2023/05/25 10:17:24;;;;;;;8.83;6.37;;;24.40;85.40;;;;;;10470465;28;20232;-86
2023/05/25 10:22:32;;;;;;;9.33;6.30;;;24.50;77.00;;;;;;10460233;28;20221;-85
2023/05/25 10:27:38;;;;;;;7.43;6.53;;;24.00;79.70;;;;;;10462004;28;20198;-85
2023/05/25 10:32:44;;;;;;;6.43;5.60;;;23.60;81.70;;;;;;10470926;28;20217;-85
2023/05/25 10:37:52;;;;;;;11.27;6.60;;;23.10;79.80;;;;;;10455168;28;20564;-86
2023/05/25 10:42:54;;;;;;;6.97;6.23;;;22.80;81.30;;;;;;10468452;28;20217;-85
2023/05/25 10:47:58;;;;;;;8.80;6.50;;;22.80;85.00;;;;;;10461560;28;20228;-85
2023/05/25 10:53:21;;;;;;;9.37;6.27;;;22.80;82.90;;;;;;10475165;28;20593;-85
2023/05/25 10:58:24;;;;;;;12.20;6.83;;;22.70;86.50;;;;;;10448555;28;20292;-85
2023/05/25 11:03:55;;;;;;;6.43;5.87;;;22.60;82.80;;;;;;10459631;28;20229;-85
2023/05/25 11:08:59;;;;;;;7.20;6.53;;;22.50;83.40;;;;;;10443523;28;20203;-85
2023/05/25 11:14:02;;;;;;;7.00;6.30;;;22.50;83.30;;;;;;10473114;28;20268;-85
2023/05/25 11:19:14;;;;;;;7.03;5.60;;;22.50;84.00;;;;;;10466278;28;20568;-85
2023/05/25 11:24:17;;;;;;;7.57;6.17;;;22.50;83.40;;;;;;10478102;28;20224;-85
2023/05/25 11:29:20;;;;;;;6.80;6.13;;;22.50;88.80;;;;;;10480385;28;20201;-85
2023/05/25 11:34:25;;;;;;;8.43;5.87;;;22.50;86.20;;;;;;10480586;28;20229;-85
2023/05/25 11:39:27;;;;;;;5.83;5.37;;;22.50;84.90;;;;;;10500482;28;20193;-85
2023/05/25 11:44:32;;;;;;;7.03;6.10;;;22.50;87.00;;;;;;10515379;28;20217;-84
2023/05/25 11:49:38;;;;;;;7.17;6.57;;;22.50;84.40;;;;;;10483039;28;20202;-85
2023/05/25 11:54:41;;;;;;;7.77;5.60;;;22.40;88.40;;;;;;10455122;28;20245;-85
2023/05/25 11:59:48;;;;;;;7.97;6.60;;;22.40;87.60;;;;;;10460745;28;20717;-85
2023/05/25 12:04:57;;;;;;;7.73;5.90;;;22.40;86.60;;;;;;10456778;28;20634;-85
2023/05/25 12:10:06;;;;;;;6.90;6.20;;;22.30;86.30;;;;;;10460371;28;20247;-85
2023/05/25 12:15:10;;;;;;;7.53;6.87;;;22.40;83.70;;;;;;10469294;28;20621;-85
2023/05/25 12:20:16;;;;;;;7.43;6.60;;;22.40;86.10;;;;;;10453187;28;20616;-85
2023/05/25 12:25:21;;;;;;;10.40;6.73;;;22.30;88.10;;;;;;10482525;28;20264;-85
2023/05/25 12:30:28;;;;;;;7.17;5.67;;;22.30;86.90;;;;;;10476253;28;20209;-85
2023/05/25 12:35:45;;;;;;;9.20;6.67;;;22.30;85.80;;;;;;10470492;28;20260;-86
2023/05/25 12:40:47;;;;;;;7.20;6.50;;;22.30;87.40;;;;;;10485559;28;20199;-85
2023/05/25 12:45:50;;;;;;;10.27;5.90;;;22.30;88.70;;;;;;10476991;28;20669;-85
2023/05/25 12:50:59;;;;;;;7.97;6.40;;;22.30;88.70;;;;;;10488301;28;20589;-85
2023/05/25 12:56:02;;;;;;;6.80;6.20;;;22.30;90.10;;;;;;10459805;28;20198;-85
2023/05/25 13:01:07;;;;;;;8.13;6.70;;;22.30;89.50;;;;;;10472797;28;20284;-85
2023/05/25 13:06:11;;;;;;;7.60;6.60;;;22.30;88.70;;;;;;10474565;28;20198;-85
2023/05/25 13:11:13;;;;;;;8.53;6.53;;;22.20;87.40;;;;;;10447728;28;20716;-86
2023/05/25 13:16:15;;;;;;;10.47;7.00;;;22.30;86.00;;;;;;10482235;28;20236;-85
2023/05/25 13:21:19;;;;;;;7.67;6.87;;;22.30;86.30;;;;;;10473022;28;20260;-84
2023/05/25 13:26:21;;;;;;;8.67;7.77;;;22.20;88.70;;;;;;10469722;28;20193;-85
2023/05/25 13:31:23;;;;;;;8.60;6.30;;;22.10;87.50;;;;;;10481820;28;20585;-85
2023/05/25 13:36:26;;;;;;;8.07;6.60;;;22.00;89.60;;;;;;10475472;28;20206;-85
2023/05/25 13:41:28;;;;;;;7.00;6.40;;;21.90;88.70;;;;;;10457397;28;20214;-85
2023/05/25 13:46:31;;;;;;;6.30;5.70;;;21.90;89.60;;;;;;10462097;28;20198;-85
2023/05/25 13:51:37;;;;;;;10.63;6.33;;;22.00;90.10;;;;;;10481731;28;20263;-85
2023/05/25 13:56:41;;;;;;;7.50;6.60;;;22.00;84.70;;;;;;10469885;28;20201;-85
2023/05/25 14:01:44;;;;;;;7.30;6.07;;;21.90;86.90;;;;;;10476109;28;20241;-85
2023/05/25 14:06:47;;;;;;;8.30;6.20;;;21.80;87.00;;;;;;10463881;28;20267;-85
2023/05/25 14:11:51;;;;;;;7.47;6.23;;;21.70;85.40;;;;;;10475870;28;20252;-85
2023/05/25 14:16:53;;;;;;;9.90;6.20;;;21.70;86.50;;;;;;10456702;28;20397;-85
2023/05/25 14:21:56;;;;;;;7.47;6.10;;;21.70;87.70;;;;;;10475588;28;20233;-85
2023/05/25 14:26:58;;;;;;;7.07;6.10;;;21.70;89.20;;;;;;10487193;28;20198;-85
2023/05/25 14:32:00;;;;;;;7.67;5.70;;;21.90;88.90;;;;;;10456456;28;20222;-85
2023/05/25 14:37:04;;;;;;;9.17;5.57;;;22.00;87.50;;;;;;10474992;28;20621;-85
2023/05/25 14:42:07;;;;;;;7.77;5.80;;;22.00;86.30;;;;;;10473804;28;20210;-85
2023/05/25 14:47:09;;;;;;;6.00;5.50;;;21.90;89.10;;;;;;10446839;28;20654;-85
2023/05/25 14:52:12;;;;;;;7.97;6.40;;;21.90;88.70;;;;;;10472546;28;20229;-85
2023/05/25 14:57:15;;;;;;;9.03;6.60;;;21.80;86.20;;;;;;10457273;28;20201;-85
2023/05/25 15:02:18;;;;;;;7.53;5.93;;;21.60;88.80;;;;;;10498628;23;20698;-88
2023/05/25 15:07:22;;;;;;;7.67;5.70;;;21.50;86.10;;;;;;10525381;28;20294;-88
2023/05/25 15:12:24;;;;;;;7.50;6.07;;;21.40;88.60;;;;;;10513105;28;20225;-89
2023/05/25 15:17:29;;;;;;;8.67;7.20;;;21.40;85.70;;;;;;10473703;28;20231;-88
2023/05/25 15:22:32;;;;;;;11.67;7.00;;;21.50;85.70;;;;;;10515231;28;20225;-89
2023/05/25 15:27:35;;;;;;;9.13;6.30;;;21.50;87.30;;;;;;10496968;28;20502;-88
2023/05/25 15:32:37;;;;;;;9.17;6.63;;;21.40;87.40;;;;;;10485650;28;20701;-88
2023/05/25 15:37:41;;;;;;;8.00;6.20;;;21.30;88.40;;;;;;10456790;28;20276;-89
2023/05/25 15:42:44;;;;;;;6.73;5.97;;;21.10;89.30;;;;;;10480608;28;20217;-88
2023/05/25 15:47:46;;;;;;;8.90;6.70;;;21.10;87.20;;;;;;10500202;28;20315;-88
2023/05/25 15:52:50;;;;;;;7.17;6.57;;;21.10;87.00;;;;;;10515029;28;20278;-88
2023/05/25 15:57:52;;;;;;;7.70;6.97;;;21.00;87.00;;;;;;10510585;28;20197;-89
2023/05/25 16:02:54;;;;;;;6.47;5.10;;;21.00;87.30;;;;;;10487532;28;20590;-89
2023/05/25 16:07:58;;;;;;;7.17;5.97;;;21.00;86.90;;;;;;10494037;28;20196;-88
2023/05/25 16:13:00;;;;;;;7.60;5.80;;;21.00;88.30;;;;;;10485636;28;20213;-89
2023/05/25 16:18:03;;;;;;;8.07;5.53;;;21.00;87.00;;;;;;10512497;28;20201;-89
2023/05/25 16:23:06;;;;;;;6.67;5.97;;;20.90;88.40;;;;;;10485106;28;20213;-89
2023/05/25 16:28:09;;;;;;;7.17;6.10;;;20.90;86.60;;;;;;10522247;28;20247;-88
2023/05/25 16:33:11;;;;;;;6.80;5.80;;;20.90;88.50;;;;;;10473842;28;20231;-88
2023/05/25 16:38:15;;;;;;;5.97;5.50;;;20.90;86.50;;;;;;10466393;28;20635;-91
2023/05/25 16:43:17;;;;;;;9.30;6.30;;;20.90;86.40;;;;;;10467288;28;20213;-90
2023/05/25 16:48:20;;;;;;;6.37;5.73;;;20.80;88.60;;;;;;10486771;28;20253;-93
2023/05/25 16:53:24;;;;;;;8.77;7.47;;;20.80;88.50;;;;;;10501932;28;20317;-90
2023/05/25 16:58:26;;;;;;;7.57;6.83;;;20.70;88.70;;;;;;10488052;28;20689;-90
2023/05/25 17:03:28;;;;;;;6.50;6.00;;;20.60;90.50;;;;;;10467644;28;20252;-87
2023/05/25 17:08:32;;;;;;;6.47;5.67;;;20.60;89.10;;;;;;10482783;28;20228;-87
2023/05/25 17:13:34;;;;;;;7.10;6.40;;;20.60;90.80;;;;;;10476147;28;20301;-88
2023/05/25 17:18:36;;;;;;;7.23;6.50;;;20.50;90.50;;;;;;10494053;28;20613;-86
2023/05/25 17:23:40;;;;;;;7.00;5.30;;;20.40;89.80;;;;;;10480657;28;20553;-86
2023/05/25 17:28:49;;;;;;;7.40;6.60;;;20.40;90.40;;;;;;10475062;28;20732;-91
2023/05/25 17:33:51;;;;;;;6.50;5.93;;;20.30;90.80;;;;;;10500519;28;20236;-90
2023/05/25 17:38:58;;;;;;;6.53;6.03;;;20.30;90.20;;;;;;10507872;28;20201;-89
2023/05/25 17:44:00;;;;;;;5.90;5.40;;;20.30;90.40;;;;;;10502800;28;20271;-90
2023/05/25 17:49:03;;;;;;;6.20;5.70;;;20.30;90.90;;;;;;10477870;28;20572;-88
2023/05/25 17:54:06;;;;;;;6.43;5.90;;;20.20;90.20;;;;;;10492951;28;20641;-88
2023/05/25 17:59:09;;;;;;;5.90;5.40;;;20.20;89.90;;;;;;10505975;28;20246;-87
2023/05/25 18:04:20;;;;;;;6.47;5.93;;;20.20;90.70;;;;;;10505485;28;20326;-92
2023/05/25 18:09:24;;;;;;;6.00;5.40;;;20.10;91.80;;;;;;10479800;28;20201;-91
2023/05/25 18:14:27;;;;;;;6.63;6.03;;;20.10;89.20;;;;;;10460918;28;20872;-91
2023/05/25 18:19:30;;;;;;;6.53;5.83;;;20.00;91.70;;;;;;10473434;28;20196;-91
2023/05/25 18:24:34;;;;;;;8.43;5.60;;;20.00;90.20;;;;;;10510947;28;20221;-87
2023/05/25 18:29:36;;;;;;;6.83;6.07;;;20.00;91.40;;;;;;10492460;28;20196;-84
2023/05/25 18:34:38;;;;;;;7.07;6.30;;;19.90;90.60;;;;;;10487002;28;20213;-85
2023/05/25 18:39:41;;;;;;;6.00;5.37;;;19.90;92.20;;;;;;10507225;28;20223;-85
2023/05/25 18:44:43;;;;;;;6.30;5.70;;;19.80;92.80;;;;;;10525940;28;20224;-85
2023/05/25 18:49:46;;;;;;;7.00;6.40;;;19.70;94.20;;;;;;10477571;28;20197;-84
2023/05/25 18:54:49;;;;;;;8.83;5.70;;;19.60;94.60;;;;;;10499655;28;20220;-84
2023/05/25 18:59:51;;;;;;;6.83;6.13;;;19.50;93.70;;;;;;10511196;28;20223;-86
2023/05/25 19:04:53;;;;;;;7.80;6.27;;;19.40;94.50;;;;;;10521008;28;20221;-84
2023/05/25 19:09:56;;;;;;;6.80;6.20;;;19.30;93.60;;;;;;10476328;28;20208;-85
2023/05/25 19:14:58;;;;;;;6.67;6.00;;;19.30;92.40;;;;;;10505562;28;20277;-85
2023/05/25 19:20:01;;;;;;;6.70;6.10;;;19.20;93.00;;;;;;10515295;28;20536;-84
2023/05/25 19:25:05;;;;;;;6.50;5.87;;;19.20;94.30;;;;;;10465910;28;20307;-84
2023/05/25 19:30:08;;;;;;;7.70;7.00;;;19.10;93.10;;;;;;10464237;28;20224;-84
2023/05/25 19:35:10;;;;;;;7.07;6.47;;;19.00;93.40;;;;;;10465556;28;20229;-84
2023/05/25 19:40:13;;;;;;;7.37;6.70;;;19.00;93.10;;;;;;10454238;28;20213;-84
2023/05/25 19:45:17;;;;;;;7.50;6.77;;;18.90;92.80;;;;;;10464270;28;20228;-84
2023/05/25 19:50:20;;;;;;;8.20;7.20;;;18.80;93.40;;;;;;10447510;28;20271;-84
2023/05/25 19:55:23;;;;;;;8.00;7.30;;;18.70;93.30;;;;;;10508665;28;20233;-85
2023/05/25 20:00:25;;;;;;;9.70;7.43;;;18.60;93.50;;;;;;10497354;28;20949;-84
2023/05/25 20:05:27;;;;;;;7.70;6.20;;;18.50;93.90;;;;;;10460547;28;20229;-84
2023/05/25 20:10:37;;;;;;;6.93;6.27;;;18.50;93.60;;;;;;10480211;28;20255;-84
2023/05/25 20:15:40;;;;;;;6.40;5.80;;;18.40;93.80;;;;;;10492220;28;20717;-84
2023/05/25 20:20:44;;;;;;;6.70;6.00;;;18.30;93.80;;;;;;10495521;28;20237;-84
2023/05/25 20:25:47;;;;;;;6.37;5.67;;;18.20;94.10;;;;;;10508257;28;20224;-84
2023/05/25 20:30:49;;;;;;;8.30;6.83;;;18.20;93.60;;;;;;10467563;28;20229;-84
2023/05/25 20:35:52;;;;;;;6.33;5.73;;;18.10;93.80;;;;;;10486202;28;20229;-84
2023/05/25 20:40:55;;;;;;;6.60;6.00;;;18.00;94.10;;;;;;10503856;28;20252;-83
2023/05/25 20:45:57;;;;;;;7.20;6.50;;;17.90;93.70;;;;;;10490457;28;20681;-83
2023/05/25 20:50:59;;;;;;;6.70;6.10;;;17.90;93.50;;;;;;10488976;28;20241;-83
2023/05/25 20:56:03;;;;;;;7.67;6.77;;;17.80;93.30;;;;;;10488949;28;20224;-84
2023/05/25 21:01:06;;;;;;;7.37;6.67;;;17.80;93.70;;;;;;10510692;28;20243;-85
2023/05/25 21:06:09;;;;;;;7.67;6.87;;;17.70;94.20;;;;;;10460497;28;20288;-84
2023/05/25 21:11:12;;;;;;;7.17;6.53;;;17.60;94.40;;;;;;10470553;28;20322;-83
2023/05/25 21:16:14;;;;;;;6.43;5.80;;;17.60;94.10;;;;;;10467028;28;20225;-84
2023/05/25 21:21:16;;;;;;;6.30;5.70;;;17.60;93.20;;;;;;10460280;28;20236;-84
2023/05/25 21:26:20;;;;;;;8.33;6.27;;;17.50;94.10;;;;;;10500234;28;20213;-84
2023/05/25 21:31:23;;;;;;;7.20;6.60;;;17.40;94.40;;;;;;10480811;28;20590;-84
2023/05/25 21:36:25;;;;;;;6.87;6.17;;;17.40;94.40;;;;;;10495906;28;20585;-83
2023/05/25 21:41:29;;;;;;;6.97;6.27;;;17.30;94.40;;;;;;10458592;28;20225;-83
2023/05/25 21:46:31;;;;;;;7.80;7.00;;;17.30;94.20;;;;;;10448627;28;20215;-84
2023/05/25 21:51:33;;;;;;;7.70;5.97;;;17.30;93.40;;;;;;10485849;28;20225;-83
2023/05/25 21:56:37;;;;;;;8.57;6.40;;;17.20;94.30;;;;;;10481913;28;20221;-84
2023/05/25 22:01:39;;;;;;;9.40;7.33;;;17.20;93.50;;;;;;10464440;28;20240;-83
2023/05/25 22:06:41;;;;;;;6.93;6.23;;;17.10;94.10;;;;;;10445758;28;20300;-84
2023/05/25 22:11:45;;;;;;;7.20;6.60;;;17.00;94.10;;;;;;10473590;28;20796;-85
2023/05/25 22:16:47;;;;;;;7.20;6.00;;;17.00;93.70;;;;;;10468754;28;20229;-84
2023/05/25 22:21:49;;;;;;;7.70;6.50;;;16.90;94.50;;;;;;10497640;28;21257;-83
2023/05/25 22:26:53;;;;;;;7.00;6.30;;;16.90;93.90;;;;;;10486005;28;20847;-83
2023/05/25 22:31:55;;;;;;;6.87;6.17;;;16.80;93.90;;;;;;10468062;28;20232;-84
2023/05/25 22:36:57;;;;;;;6.90;6.40;;;16.80;94.50;;;;;;10469199;28;20236;-83
2023/05/25 22:42:00;;;;;;;7.03;6.07;;;16.70;93.80;;;;;;10451258;28;20233;-84
2023/05/25 22:47:03;;;;;;;7.67;6.90;;;16.70;94.00;;;;;;10457542;28;20297;-84
2023/05/25 22:52:05;;;;;;;6.90;6.30;;;16.60;94.80;;;;;;10491627;28;20304;-85
2023/05/25 22:57:09;;;;;;;7.70;6.20;;;16.60;94.70;;;;;;10471568;28;20209;-84
2023/05/25 23:02:11;;;;;;;7.87;7.07;;;16.60;94.60;;;;;;10459493;28;20248;-84
2023/05/25 23:07:14;;;;;;;9.03;6.93;;;16.50;94.70;;;;;;10473440;28;20209;-84
2023/05/25 23:12:17;;;;;;;8.57;7.67;;;16.50;95.10;;;;;;10448729;28;20717;-85
2023/05/25 23:17:21;;;;;;;7.60;6.90;;;16.50;94.20;;;;;;10463179;28;20209;-84
2023/05/25 23:22:23;;;;;;;8.00;6.40;;;16.50;94.30;;;;;;10482497;28;20224;-84
2023/05/25 23:27:26;;;;;;;7.43;6.83;;;16.50;94.10;;;;;;10466377;28;20236;-84
2023/05/25 23:32:29;;;;;;;7.43;6.37;;;16.50;94.50;;;;;;10484306;28;20213;-84
2023/05/25 23:37:31;;;;;;;7.50;6.67;;;16.50;93.90;;;;;;10450213;28;20205;-85
2023/05/25 23:42:40;;;;;;;9.30;6.50;;;16.40;93.90;;;;;;10490519;28;20357;-85
2023/05/25 23:47:42;;;;;;;6.70;6.10;;;16.40;94.10;;;;;;10494609;28;20208;-85
2023/05/25 23:52:44;;;;;;;9.70;6.57;;;16.40;94.40;;;;;;10457382;28;20232;-84
2023/05/25 23:57:48;;;;;;;7.23;6.47;;;16.30;94.50;;;;;;10459017;28;20197;-85
